sensor_id;sensor_type;location;lat;lon;timestamp;P1;durP1;ratioP1;P2;durP2;ratioP2
24305;SDS011;12423;48.768;8.850;2022-09-21T00:00:08;7.68;;;3.80;;
24305;SDS011;12423;48.768;8.850;2022-09-21T00:02:09;8.23;;;4.28;;
24305;SDS011;12423;48.768;8.850;2022-09-21T00:04:10;8.82;;;4.18;;
24305;SDS011;12423;48.768;8.850;2022-09-21T00:06:15;5.43;;;3.70;;
24305;SDS011;12423;48.768;8.850;2022-09-21T00:08:18;7.32;;;4.13;;
24305;SDS011;12423;48.768;8.850;2022-09-21T00:10:19;9.05;;;3.88;;
24305;SDS011;12423;48.768;8.850;2022-09-21T00:12:21;8.13;;;4.10;;
24305;SDS011;12423;48.768;8.850;2022-09-21T00:14:22;7.18;;;3.85;;
24305;SDS011;12423;48.768;8.850;2022-09-21T00:16:23;7.75;;;4.20;;
24305;SDS011;12423;48.768;8.850;2022-09-21T00:18:24;6.93;;;4.03;;
24305;SDS011;12423;48.768;8.850;2022-09-21T00:20:27;5.38;;;3.97;;
24305;SDS011;12423;48.768;8.850;2022-09-21T00:22:28;6.80;;;3.75;;
24305;SDS011;12423;48.768;8.850;2022-09-21T00:24:29;8.73;;;4.82;;
24305;SDS011;12423;48.768;8.850;2022-09-21T00:26:30;7.65;;;4.25;;
24305;SDS011;12423;48.768;8.850;2022-09-21T00:28:31;6.57;;;4.13;;
24305;SDS011;12423;48.768;8.850;2022-09-21T00:30:32;9.00;;;4.00;;
24305;SDS011;12423;48.768;8.850;2022-09-21T00:32:35;9.30;;;4.10;;
24305;SDS011;12423;48.768;8.850;2022-09-21T00:34:37;7.38;;;4.63;;
24305;SDS011;12423;48.768;8.850;2022-09-21T00:36:38;7.80;;;4.38;;
24305;SDS011;12423;48.768;8.850;2022-09-21T00:38:39;9.80;;;4.68;;
24305;SDS011;12423;48.768;8.850;2022-09-21T00:40:40;6.95;;;4.03;;
24305;SDS011;12423;48.768;8.850;2022-09-21T00:42:41;7.40;;;4.72;;
24305;SDS011;12423;48.768;8.850;2022-09-21T00:44:42;7.32;;;4.18;;
24305;SDS011;12423;48.768;8.850;2022-09-21T00:46:43;9.52;;;4.78;;
24305;SDS011;12423;48.768;8.850;2022-09-21T00:48:46;5.68;;;3.83;;
24305;SDS011;12423;48.768;8.850;2022-09-21T00:50:48;11.63;;;4.40;;
24305;SDS011;12423;48.768;8.850;2022-09-21T00:52:54;8.05;;;3.92;;
24305;SDS011;12423;48.768;8.850;2022-09-21T00:54:59;7.93;;;4.30;;
24305;SDS011;12423;48.768;8.850;2022-09-21T00:57:04;6.10;;;3.78;;
24305;SDS011;12423;48.768;8.850;2022-09-21T00:59:05;8.73;;;3.72;;
24305;SDS011;12423;48.768;8.850;2022-09-21T01:01:09;7.93;;;3.67;;
24305;SDS011;12423;48.768;8.850;2022-09-21T01:03:12;11.00;;;4.18;;
24305;SDS011;12423;48.768;8.850;2022-09-21T01:05:13;6.25;;;4.05;;
24305;SDS011;12423;48.768;8.850;2022-09-21T01:07:18;6.25;;;3.75;;
24305;SDS011;12423;48.768;8.850;2022-09-21T01:09:22;6.70;;;2.85;;
24305;SDS011;12423;48.768;8.850;2022-09-21T01:13:58;7.15;;;3.65;;
24305;SDS011;12423;48.768;8.850;2022-09-21T01:16:10;8.60;;;3.83;;
24305;SDS011;12423;48.768;8.850;2022-09-21T01:18:23;9.95;;;3.88;;
24305;SDS011;12423;48.768;8.850;2022-09-21T01:23:11;6.75;;;3.63;;
24305;SDS011;12423;48.768;8.850;2022-09-21T01:25:25;5.85;;;3.58;;
24305;SDS011;12423;48.768;8.850;2022-09-21T01:30:06;6.03;;;2.92;;
24305;SDS011;12423;48.768;8.850;2022-09-21T01:36:38;7.53;;;3.83;;
24305;SDS011;12423;48.768;8.850;2022-09-21T01:38:48;4.68;;;3.20;;
24305;SDS011;12423;48.768;8.850;2022-09-21T01:40:55;7.15;;;4.20;;
24305;SDS011;12423;48.768;8.850;2022-09-21T01:43:01;6.25;;;3.50;;
24305;SDS011;12423;48.768;8.850;2022-09-21T01:45:04;6.82;;;3.42;;
24305;SDS011;12423;48.768;8.850;2022-09-21T01:47:09;8.20;;;3.42;;
24305;SDS011;12423;48.768;8.850;2022-09-21T01:49:19;5.80;;;3.72;;
24305;SDS011;12423;48.768;8.850;2022-09-21T01:51:25;5.85;;;3.75;;
24305;SDS011;12423;48.768;8.850;2022-09-21T01:53:32;5.53;;;3.38;;
24305;SDS011;12423;48.768;8.850;2022-09-21T01:55:41;6.82;;;4.35;;
24305;SDS011;12423;48.768;8.850;2022-09-21T01:57:59;5.82;;;3.63;;
24305;SDS011;12423;48.768;8.850;2022-09-21T02:00:05;6.55;;;3.33;;
24305;SDS011;12423;48.768;8.850;2022-09-21T02:02:17;9.07;;;3.92;;
24305;SDS011;12423;48.768;8.850;2022-09-21T02:04:22;6.90;;;3.78;;
24305;SDS011;12423;48.768;8.850;2022-09-21T02:06:24;5.57;;;3.75;;
24305;SDS011;12423;48.768;8.850;2022-09-21T02:08:28;9.00;;;3.47;;
24305;SDS011;12423;48.768;8.850;2022-09-21T02:10:49;6.40;;;4.03;;
24305;SDS011;12423;48.768;8.850;2022-09-21T02:12:52;7.20;;;3.72;;
24305;SDS011;12423;48.768;8.850;2022-09-21T02:15:00;8.38;;;4.07;;
24305;SDS011;12423;48.768;8.850;2022-09-21T02:17:20;6.93;;;3.35;;
24305;SDS011;12423;48.768;8.850;2022-09-21T02:26:33;5.18;;;3.38;;
24305;SDS011;12423;48.768;8.850;2022-09-21T02:31:11;12.23;;;5.72;;
24305;SDS011;12423;48.768;8.850;2022-09-21T02:33:27;14.27;;;7.82;;
24305;SDS011;12423;48.768;8.850;2022-09-21T02:35:45;14.05;;;7.93;;
24305;SDS011;12423;48.768;8.850;2022-09-21T02:37:52;13.65;;;7.45;;
24305;SDS011;12423;48.768;8.850;2022-09-21T02:42:27;12.52;;;7.03;;
24305;SDS011;12423;48.768;8.850;2022-09-21T02:44:35;10.57;;;6.65;;
24305;SDS011;12423;48.768;8.850;2022-09-21T02:46:56;10.10;;;5.97;;
24305;SDS011;12423;48.768;8.850;2022-09-21T02:49:04;9.23;;;5.55;;
24305;SDS011;12423;48.768;8.850;2022-09-21T02:51:10;7.35;;;4.47;;
24305;SDS011;12423;48.768;8.850;2022-09-21T02:53:21;9.00;;;5.13;;
24305;SDS011;12423;48.768;8.850;2022-09-21T02:55:26;8.52;;;4.93;;
24305;SDS011;12423;48.768;8.850;2022-09-21T02:57:28;8.80;;;4.40;;
24305;SDS011;12423;48.768;8.850;2022-09-21T02:59:30;7.93;;;4.95;;
24305;SDS011;12423;48.768;8.850;2022-09-21T03:01:32;7.43;;;4.70;;
24305;SDS011;12423;48.768;8.850;2022-09-21T03:03:34;8.93;;;4.93;;
24305;SDS011;12423;48.768;8.850;2022-09-21T03:05:35;7.93;;;4.32;;
24305;SDS011;12423;48.768;8.850;2022-09-21T03:07:36;8.85;;;4.50;;
24305;SDS011;12423;48.768;8.850;2022-09-21T03:09:37;8.73;;;4.30;;
24305;SDS011;12423;48.768;8.850;2022-09-21T03:11:38;7.55;;;4.38;;
24305;SDS011;12423;48.768;8.850;2022-09-21T03:13:41;8.27;;;4.70;;
24305;SDS011;12423;48.768;8.850;2022-09-21T03:15:43;8.10;;;4.43;;
24305;SDS011;12423;48.768;8.850;2022-09-21T03:17:45;7.07;;;4.50;;
24305;SDS011;12423;48.768;8.850;2022-09-21T03:19:45;7.53;;;4.47;;
24305;SDS011;12423;48.768;8.850;2022-09-21T03:21:46;7.30;;;4.03;;
24305;SDS011;12423;48.768;8.850;2022-09-21T03:23:47;8.70;;;3.90;;
24305;SDS011;12423;48.768;8.850;2022-09-21T03:25:49;9.95;;;4.43;;
24305;SDS011;12423;48.768;8.850;2022-09-21T03:27:51;6.75;;;4.15;;
24305;SDS011;12423;48.768;8.850;2022-09-21T03:29:55;7.38;;;4.30;;
24305;SDS011;12423;48.768;8.850;2022-09-21T03:31:56;5.40;;;3.65;;
24305;SDS011;12423;48.768;8.850;2022-09-21T03:33:57;7.15;;;4.28;;
24305;SDS011;12423;48.768;8.850;2022-09-21T03:35:58;7.43;;;4.30;;
24305;SDS011;12423;48.768;8.850;2022-09-21T03:37:59;6.57;;;3.83;;
24305;SDS011;12423;48.768;8.850;2022-09-21T03:40:00;6.82;;;3.55;;
24305;SDS011;12423;48.768;8.850;2022-09-21T03:42:02;8.32;;;4.00;;
24305;SDS011;12423;48.768;8.850;2022-09-21T03:44:03;8.43;;;3.75;;
24305;SDS011;12423;48.768;8.850;2022-09-21T03:46:04;6.43;;;4.25;;
24305;SDS011;12423;48.768;8.850;2022-09-21T03:48:05;6.03;;;4.22;;
24305;SDS011;12423;48.768;8.850;2022-09-21T03:50:07;5.82;;;3.70;;
24305;SDS011;12423;48.768;8.850;2022-09-21T03:52:08;6.47;;;3.35;;
24305;SDS011;12423;48.768;8.850;2022-09-21T03:54:09;9.23;;;3.70;;
24305;SDS011;12423;48.768;8.850;2022-09-21T03:56:10;6.95;;;3.90;;
24305;SDS011;12423;48.768;8.850;2022-09-21T03:58:11;7.78;;;4.18;;
24305;SDS011;12423;48.768;8.850;2022-09-21T04:00:12;5.75;;;3.88;;
24305;SDS011;12423;48.768;8.850;2022-09-21T04:02:14;6.88;;;3.90;;
24305;SDS011;12423;48.768;8.850;2022-09-21T04:04:16;5.90;;;3.83;;
24305;SDS011;12423;48.768;8.850;2022-09-21T04:06:17;6.60;;;3.58;;
24305;SDS011;12423;48.768;8.850;2022-09-21T04:08:18;6.28;;;3.60;;
24305;SDS011;12423;48.768;8.850;2022-09-21T04:10:20;5.15;;;2.97;;
24305;SDS011;12423;48.768;8.850;2022-09-21T04:12:26;5.30;;;3.60;;
24305;SDS011;12423;48.768;8.850;2022-09-21T04:14:27;7.18;;;3.38;;
24305;SDS011;12423;48.768;8.850;2022-09-21T04:16:28;5.55;;;3.33;;
24305;SDS011;12423;48.768;8.850;2022-09-21T04:18:29;4.45;;;3.20;;
24305;SDS011;12423;48.768;8.850;2022-09-21T04:20:31;5.60;;;3.15;;
24305;SDS011;12423;48.768;8.850;2022-09-21T04:22:33;6.43;;;4.10;;
24305;SDS011;12423;48.768;8.850;2022-09-21T04:24:34;6.03;;;3.85;;
24305;SDS011;12423;48.768;8.850;2022-09-21T04:26:35;8.27;;;4.38;;
24305;SDS011;12423;48.768;8.850;2022-09-21T04:28:37;6.93;;;4.10;;
24305;SDS011;12423;48.768;8.850;2022-09-21T04:30:38;8.73;;;4.85;;
24305;SDS011;12423;48.768;8.850;2022-09-21T04:32:39;8.23;;;3.92;;
24305;SDS011;12423;48.768;8.850;2022-09-21T04:34:40;6.32;;;4.25;;
24305;SDS011;12423;48.768;8.850;2022-09-21T04:36:41;6.28;;;4.20;;
24305;SDS011;12423;48.768;8.850;2022-09-21T04:38:43;7.80;;;3.80;;
24305;SDS011;12423;48.768;8.850;2022-09-21T04:40:44;6.97;;;3.80;;
24305;SDS011;12423;48.768;8.850;2022-09-21T04:42:53;6.88;;;4.20;;
24305;SDS011;12423;48.768;8.850;2022-09-21T04:44:55;8.07;;;3.97;;
24305;SDS011;12423;48.768;8.850;2022-09-21T04:46:56;5.78;;;3.90;;
24305;SDS011;12423;48.768;8.850;2022-09-21T04:48:57;5.97;;;3.80;;
24305;SDS011;12423;48.768;8.850;2022-09-21T04:50:58;6.45;;;3.65;;
24305;SDS011;12423;48.768;8.850;2022-09-21T04:52:59;6.93;;;3.80;;
24305;SDS011;12423;48.768;8.850;2022-09-21T04:55:00;6.97;;;4.07;;
24305;SDS011;12423;48.768;8.850;2022-09-21T04:57:01;7.97;;;3.95;;
24305;SDS011;12423;48.768;8.850;2022-09-21T04:59:02;5.88;;;3.90;;
24305;SDS011;12423;48.768;8.850;2022-09-21T05:01:04;8.05;;;4.28;;
24305;SDS011;12423;48.768;8.850;2022-09-21T05:03:05;9.48;;;3.70;;
24305;SDS011;12423;48.768;8.850;2022-09-21T05:05:06;7.90;;;3.92;;
24305;SDS011;12423;48.768;8.850;2022-09-21T05:07:07;7.47;;;4.15;;
24305;SDS011;12423;48.768;8.850;2022-09-21T05:09:08;6.43;;;4.22;;
24305;SDS011;12423;48.768;8.850;2022-09-21T05:11:28;6.25;;;4.03;;
24305;SDS011;12423;48.768;8.850;2022-09-21T05:13:29;9.15;;;4.32;;
24305;SDS011;12423;48.768;8.850;2022-09-21T05:15:30;6.65;;;4.05;;
24305;SDS011;12423;48.768;8.850;2022-09-21T05:17:31;8.10;;;5.35;;
24305;SDS011;12423;48.768;8.850;2022-09-21T05:19:32;9.40;;;4.53;;
24305;SDS011;12423;48.768;8.850;2022-09-21T05:21:33;8.27;;;5.35;;
24305;SDS011;12423;48.768;8.850;2022-09-21T05:23:36;8.50;;;4.28;;
24305;SDS011;12423;48.768;8.850;2022-09-21T05:25:37;9.32;;;4.97;;
24305;SDS011;12423;48.768;8.850;2022-09-21T05:27:38;9.60;;;5.40;;
24305;SDS011;12423;48.768;8.850;2022-09-21T05:29:39;9.27;;;5.78;;
24305;SDS011;12423;48.768;8.850;2022-09-21T05:38:38;12.48;;;8.45;;
24305;SDS011;12423;48.768;8.850;2022-09-21T05:40:39;10.48;;;6.95;;
24305;SDS011;12423;48.768;8.850;2022-09-21T05:42:40;9.88;;;6.65;;
24305;SDS011;12423;48.768;8.850;2022-09-21T05:44:42;12.77;;;6.05;;
24305;SDS011;12423;48.768;8.850;2022-09-21T05:48:57;8.10;;;5.05;;
24305;SDS011;12423;48.768;8.850;2022-09-21T05:51:02;7.45;;;4.72;;
24305;SDS011;12423;48.768;8.850;2022-09-21T05:53:18;7.97;;;4.65;;
24305;SDS011;12423;48.768;8.850;2022-09-21T05:56:17;7.97;;;4.68;;
24305;SDS011;12423;48.768;8.850;2022-09-21T06:00:18;9.80;;;4.35;;
24305;SDS011;12423;48.768;8.850;2022-09-21T06:04:36;7.00;;;4.03;;
24305;SDS011;12423;48.768;8.850;2022-09-21T06:06:37;7.47;;;4.57;;
24305;SDS011;12423;48.768;8.850;2022-09-21T06:08:39;9.38;;;4.45;;
24305;SDS011;12423;48.768;8.850;2022-09-21T06:10:40;10.93;;;4.35;;
24305;SDS011;12423;48.768;8.850;2022-09-21T06:12:41;10.13;;;4.22;;
24305;SDS011;12423;48.768;8.850;2022-09-21T06:14:42;9.23;;;5.00;;
24305;SDS011;12423;48.768;8.850;2022-09-21T06:16:44;9.18;;;4.40;;
24305;SDS011;12423;48.768;8.850;2022-09-21T06:18:44;9.55;;;5.22;;
24305;SDS011;12423;48.768;8.850;2022-09-21T06:20:46;12.23;;;5.38;;
24305;SDS011;12423;48.768;8.850;2022-09-21T06:22:47;12.43;;;6.63;;
24305;SDS011;12423;48.768;8.850;2022-09-21T06:24:48;15.05;;;7.35;;
24305;SDS011;12423;48.768;8.850;2022-09-21T06:26:49;18.48;;;8.95;;
24305;SDS011;12423;48.768;8.850;2022-09-21T06:28:50;17.40;;;7.18;;
24305;SDS011;12423;48.768;8.850;2022-09-21T06:30:51;16.35;;;7.03;;
24305;SDS011;12423;48.768;8.850;2022-09-21T06:32:57;17.60;;;6.95;;
24305;SDS011;12423;48.768;8.850;2022-09-21T06:34:58;13.30;;;6.47;;
24305;SDS011;12423;48.768;8.850;2022-09-21T06:36:59;12.90;;;6.00;;
24305;SDS011;12423;48.768;8.850;2022-09-21T06:39:00;13.73;;;5.80;;
24305;SDS011;12423;48.768;8.850;2022-09-21T06:41:02;13.80;;;6.40;;
24305;SDS011;12423;48.768;8.850;2022-09-21T06:43:04;10.23;;;5.63;;
24305;SDS011;12423;48.768;8.850;2022-09-21T06:45:06;11.15;;;5.60;;
24305;SDS011;12423;48.768;8.850;2022-09-21T06:47:07;9.18;;;5.18;;
24305;SDS011;12423;48.768;8.850;2022-09-21T06:49:08;9.88;;;5.28;;
24305;SDS011;12423;48.768;8.850;2022-09-21T06:51:09;11.10;;;5.28;;
24305;SDS011;12423;48.768;8.850;2022-09-21T06:53:10;9.48;;;4.70;;
24305;SDS011;12423;48.768;8.850;2022-09-21T06:55:11;11.57;;;5.10;;
24305;SDS011;12423;48.768;8.850;2022-09-21T06:57:12;8.43;;;5.60;;
24305;SDS011;12423;48.768;8.850;2022-09-21T06:59:13;14.20;;;5.82;;
24305;SDS011;12423;48.768;8.850;2022-09-21T07:01:14;12.38;;;5.55;;
24305;SDS011;12423;48.768;8.850;2022-09-21T07:03:15;14.90;;;6.63;;
24305;SDS011;12423;48.768;8.850;2022-09-21T07:05:16;15.32;;;8.02;;
24305;SDS011;12423;48.768;8.850;2022-09-21T07:07:17;15.00;;;8.10;;
24305;SDS011;12423;48.768;8.850;2022-09-21T07:09:18;11.88;;;7.22;;
24305;SDS011;12423;48.768;8.850;2022-09-21T07:11:19;18.40;;;8.35;;
24305;SDS011;12423;48.768;8.850;2022-09-21T07:13:23;15.82;;;8.63;;
24305;SDS011;12423;48.768;8.850;2022-09-21T07:15:24;15.48;;;8.90;;
24305;SDS011;12423;48.768;8.850;2022-09-21T07:17:32;14.98;;;7.97;;
24305;SDS011;12423;48.768;8.850;2022-09-21T07:19:33;16.48;;;10.15;;
24305;SDS011;12423;48.768;8.850;2022-09-21T07:21:34;13.38;;;7.22;;
24305;SDS011;12423;48.768;8.850;2022-09-21T07:23:35;13.68;;;6.32;;
24305;SDS011;12423;48.768;8.850;2022-09-21T07:25:36;9.95;;;5.90;;
24305;SDS011;12423;48.768;8.850;2022-09-21T07:27:37;12.18;;;6.57;;
24305;SDS011;12423;48.768;8.850;2022-09-21T07:29:38;13.43;;;6.65;;
24305;SDS011;12423;48.768;8.850;2022-09-21T07:31:41;10.85;;;6.75;;
24305;SDS011;12423;48.768;8.850;2022-09-21T07:33:44;11.23;;;6.70;;
24305;SDS011;12423;48.768;8.850;2022-09-21T07:35:52;9.55;;;6.55;;
24305;SDS011;12423;48.768;8.850;2022-09-21T07:37:53;11.85;;;7.78;;
24305;SDS011;12423;48.768;8.850;2022-09-21T07:39:56;13.88;;;7.05;;
24305;SDS011;12423;48.768;8.850;2022-09-21T07:41:57;12.95;;;7.15;;
24305;SDS011;12423;48.768;8.850;2022-09-21T07:43:58;10.15;;;6.60;;
24305;SDS011;12423;48.768;8.850;2022-09-21T07:45:59;12.68;;;6.43;;
24305;SDS011;12423;48.768;8.850;2022-09-21T07:48:02;15.77;;;8.02;;
24305;SDS011;12423;48.768;8.850;2022-09-21T07:50:04;13.63;;;7.57;;
24305;SDS011;12423;48.768;8.850;2022-09-21T07:52:05;13.38;;;7.07;;
24305;SDS011;12423;48.768;8.850;2022-09-21T07:54:08;12.10;;;6.60;;
24305;SDS011;12423;48.768;8.850;2022-09-21T07:56:11;13.27;;;6.85;;
24305;SDS011;12423;48.768;8.850;2022-09-21T07:58:13;11.07;;;6.57;;
24305;SDS011;12423;48.768;8.850;2022-09-21T08:00:34;10.63;;;6.57;;
24305;SDS011;12423;48.768;8.850;2022-09-21T08:02:35;13.55;;;6.28;;
24305;SDS011;12423;48.768;8.850;2022-09-21T08:04:36;12.73;;;6.45;;
24305;SDS011;12423;48.768;8.850;2022-09-21T08:06:37;13.55;;;6.78;;
24305;SDS011;12423;48.768;8.850;2022-09-21T08:08:39;11.30;;;6.32;;
24305;SDS011;12423;48.768;8.850;2022-09-21T08:10:41;10.32;;;6.20;;
24305;SDS011;12423;48.768;8.850;2022-09-21T08:12:42;10.23;;;6.38;;
24305;SDS011;12423;48.768;8.850;2022-09-21T08:14:43;11.10;;;6.03;;
24305;SDS011;12423;48.768;8.850;2022-09-21T08:16:45;10.73;;;5.15;;
24305;SDS011;12423;48.768;8.850;2022-09-21T08:18:47;8.70;;;4.38;;
24305;SDS011;12423;48.768;8.850;2022-09-21T08:20:54;7.97;;;4.90;;
24305;SDS011;12423;48.768;8.850;2022-09-21T08:22:56;7.90;;;5.05;;
24305;SDS011;12423;48.768;8.850;2022-09-21T08:24:57;8.45;;;4.50;;
24305;SDS011;12423;48.768;8.850;2022-09-21T08:26:58;9.35;;;4.90;;
24305;SDS011;12423;48.768;8.850;2022-09-21T08:28:59;9.38;;;4.85;;
24305;SDS011;12423;48.768;8.850;2022-09-21T08:31:01;9.00;;;4.63;;
24305;SDS011;12423;48.768;8.850;2022-09-21T08:33:08;9.35;;;4.70;;
24305;SDS011;12423;48.768;8.850;2022-09-21T08:35:09;9.27;;;4.18;;
24305;SDS011;12423;48.768;8.850;2022-09-21T08:37:10;10.23;;;5.18;;
24305;SDS011;12423;48.768;8.850;2022-09-21T08:39:11;7.82;;;4.10;;
24305;SDS011;12423;48.768;8.850;2022-09-21T08:41:13;8.63;;;3.92;;
24305;SDS011;12423;48.768;8.850;2022-09-21T08:43:38;5.45;;;3.63;;
24305;SDS011;12423;48.768;8.850;2022-09-21T08:45:42;6.68;;;3.58;;
24305;SDS011;12423;48.768;8.850;2022-09-21T08:47:45;8.13;;;4.10;;
24305;SDS011;12423;48.768;8.850;2022-09-21T08:49:54;6.88;;;3.67;;
24305;SDS011;12423;48.768;8.850;2022-09-21T08:51:59;7.13;;;4.45;;
24305;SDS011;12423;48.768;8.850;2022-09-21T08:54:11;8.10;;;3.35;;
24305;SDS011;12423;48.768;8.850;2022-09-21T08:56:16;7.07;;;3.22;;
24305;SDS011;12423;48.768;8.850;2022-09-21T08:58:21;5.05;;;2.30;;
24305;SDS011;12423;48.768;8.850;2022-09-21T09:00:24;5.70;;;2.65;;
24305;SDS011;12423;48.768;8.850;2022-09-21T09:04:40;6.18;;;1.90;;
24305;SDS011;12423;48.768;8.850;2022-09-21T09:14:00;6.20;;;2.08;;
24305;SDS011;12423;48.768;8.850;2022-09-21T09:16:15;5.10;;;2.50;;
24305;SDS011;12423;48.768;8.850;2022-09-21T09:20:52;5.07;;;2.25;;
24305;SDS011;12423;48.768;8.850;2022-09-21T09:25:05;4.80;;;2.05;;
24305;SDS011;12423;48.768;8.850;2022-09-21T09:29:50;3.88;;;2.10;;
24305;SDS011;12423;48.768;8.850;2022-09-21T09:31:58;8.80;;;2.30;;
24305;SDS011;12423;48.768;8.850;2022-09-21T09:36:41;6.10;;;2.10;;
24305;SDS011;12423;48.768;8.850;2022-09-21T09:38:52;5.30;;;1.70;;
24305;SDS011;12423;48.768;8.850;2022-09-21T09:45:39;7.07;;;2.47;;
24305;SDS011;12423;48.768;8.850;2022-09-21T09:52:41;3.78;;;1.77;;
24305;SDS011;12423;48.768;8.850;2022-09-21T09:54:43;6.53;;;1.73;;
24305;SDS011;12423;48.768;8.850;2022-09-21T09:56:44;5.85;;;1.58;;
24305;SDS011;12423;48.768;8.850;2022-09-21T09:58:46;5.53;;;1.80;;
24305;SDS011;12423;48.768;8.850;2022-09-21T10:00:52;4.05;;;1.63;;
24305;SDS011;12423;48.768;8.850;2022-09-21T10:02:55;5.18;;;1.95;;
24305;SDS011;12423;48.768;8.850;2022-09-21T10:05:02;5.22;;;1.60;;
24305;SDS011;12423;48.768;8.850;2022-09-21T10:07:16;4.13;;;1.80;;
24305;SDS011;12423;48.768;8.850;2022-09-21T10:11:21;5.18;;;1.65;;
24305;SDS011;12423;48.768;8.850;2022-09-21T10:13:37;6.53;;;2.10;;
24305;SDS011;12423;48.768;8.850;2022-09-21T10:15:44;5.60;;;1.83;;
24305;SDS011;12423;48.768;8.850;2022-09-21T10:20:17;4.35;;;2.00;;
24305;SDS011;12423;48.768;8.850;2022-09-21T10:22:19;3.15;;;1.50;;
24305;SDS011;12423;48.768;8.850;2022-09-21T10:24:23;3.45;;;1.40;;
24305;SDS011;12423;48.768;8.850;2022-09-21T10:26:31;3.63;;;2.17;;
24305;SDS011;12423;48.768;8.850;2022-09-21T10:28:35;5.40;;;1.60;;
24305;SDS011;12423;48.768;8.850;2022-09-21T10:30:37;3.45;;;1.50;;
24305;SDS011;12423;48.768;8.850;2022-09-21T10:32:38;2.35;;;1.13;;
24305;SDS011;12423;48.768;8.850;2022-09-21T10:35:11;3.00;;;1.00;;
24305;SDS011;12423;48.768;8.850;2022-09-21T10:37:27;3.05;;;1.58;;
24305;SDS011;12423;48.768;8.850;2022-09-21T10:39:31;3.13;;;1.23;;
24305;SDS011;12423;48.768;8.850;2022-09-21T10:41:33;2.28;;;1.17;;
24305;SDS011;12423;48.768;8.850;2022-09-21T10:43:39;3.22;;;1.20;;
24305;SDS011;12423;48.768;8.850;2022-09-21T10:45:42;5.25;;;1.30;;
24305;SDS011;12423;48.768;8.850;2022-09-21T10:47:57;4.57;;;1.27;;
24305;SDS011;12423;48.768;8.850;2022-09-21T10:50:19;3.08;;;0.95;;
24305;SDS011;12423;48.768;8.850;2022-09-21T10:52:24;2.15;;;1.00;;
24305;SDS011;12423;48.768;8.850;2022-09-21T10:54:35;1.80;;;0.77;;
24305;SDS011;12423;48.768;8.850;2022-09-21T10:56:48;4.53;;;1.35;;
24305;SDS011;12423;48.768;8.850;2022-09-21T11:01:26;3.40;;;0.90;;
24305;SDS011;12423;48.768;8.850;2022-09-21T11:05:31;4.47;;;1.10;;
24305;SDS011;12423;48.768;8.850;2022-09-21T11:07:36;3.05;;;0.90;;
24305;SDS011;12423;48.768;8.850;2022-09-21T11:09:49;2.83;;;1.00;;
24305;SDS011;12423;48.768;8.850;2022-09-21T11:11:58;2.95;;;0.90;;
24305;SDS011;12423;48.768;8.850;2022-09-21T11:14:33;3.45;;;0.82;;
24305;SDS011;12423;48.768;8.850;2022-09-21T11:17:09;2.45;;;0.70;;
24305;SDS011;12423;48.768;8.850;2022-09-21T11:25:49;3.13;;;0.80;;
24305;SDS011;12423;48.768;8.850;2022-09-21T11:28:20;2.78;;;0.68;;
24305;SDS011;12423;48.768;8.850;2022-09-21T11:30:24;2.88;;;0.77;;
24305;SDS011;12423;48.768;8.850;2022-09-21T11:37:38;1.88;;;0.60;;
24305;SDS011;12423;48.768;8.850;2022-09-21T11:44:04;3.13;;;0.70;;
24305;SDS011;12423;48.768;8.850;2022-09-21T11:48:42;2.10;;;0.82;;
24305;SDS011;12423;48.768;8.850;2022-09-21T11:50:54;4.57;;;1.45;;
24305;SDS011;12423;48.768;8.850;2022-09-21T11:58:04;2.08;;;0.85;;
24305;SDS011;12423;48.768;8.850;2022-09-21T12:00:14;2.80;;;0.85;;
24305;SDS011;12423;48.768;8.850;2022-09-21T12:02:28;1.88;;;0.70;;
24305;SDS011;12423;48.768;8.850;2022-09-21T12:04:42;3.33;;;1.00;;
24305;SDS011;12423;48.768;8.850;2022-09-21T12:06:54;4.68;;;1.33;;
24305;SDS011;12423;48.768;8.850;2022-09-21T12:11:38;7.32;;;2.88;;
24305;SDS011;12423;48.768;8.850;2022-09-21T12:16:24;2.22;;;0.80;;
24305;SDS011;12423;48.768;8.850;2022-09-21T12:18:46;2.67;;;0.98;;
24305;SDS011;12423;48.768;8.850;2022-09-21T12:23:04;1.63;;;0.77;;
24305;SDS011;12423;48.768;8.850;2022-09-21T12:25:16;2.97;;;1.20;;
24305;SDS011;12423;48.768;8.850;2022-09-21T12:27:27;1.83;;;0.93;;
24305;SDS011;12423;48.768;8.850;2022-09-21T12:29:34;2.10;;;0.80;;
24305;SDS011;12423;48.768;8.850;2022-09-21T12:31:55;3.05;;;0.85;;
24305;SDS011;12423;48.768;8.850;2022-09-21T12:34:00;1.65;;;0.63;;
24305;SDS011;12423;48.768;8.850;2022-09-21T12:36:19;1.60;;;0.60;;
24305;SDS011;12423;48.768;8.850;2022-09-21T12:38:23;2.22;;;0.60;;
24305;SDS011;12423;48.768;8.850;2022-09-21T12:40:35;1.92;;;0.80;;
24305;SDS011;12423;48.768;8.850;2022-09-21T12:42:44;4.40;;;1.05;;
24305;SDS011;12423;48.768;8.850;2022-09-21T12:44:51;1.35;;;0.60;;
24305;SDS011;12423;48.768;8.850;2022-09-21T12:47:00;1.40;;;0.70;;
24305;SDS011;12423;48.768;8.850;2022-09-21T12:49:16;2.92;;;1.40;;
24305;SDS011;12423;48.768;8.850;2022-09-21T12:51:36;2.75;;;1.10;;
24305;SDS011;12423;48.768;8.850;2022-09-21T12:53:43;3.00;;;0.70;;
24305;SDS011;12423;48.768;8.850;2022-09-21T12:55:49;6.38;;;0.77;;
24305;SDS011;12423;48.768;8.850;2022-09-21T12:57:59;5.80;;;0.88;;
24305;SDS011;12423;48.768;8.850;2022-09-21T13:00:23;3.17;;;0.80;;
24305;SDS011;12423;48.768;8.850;2022-09-21T13:09:32;3.83;;;1.10;;
24305;SDS011;12423;48.768;8.850;2022-09-21T13:11:34;3.50;;;1.30;;
24305;SDS011;12423;48.768;8.850;2022-09-21T13:13:49;1.70;;;0.70;;
24305;SDS011;12423;48.768;8.850;2022-09-21T13:15:56;1.75;;;0.60;;
24305;SDS011;12423;48.768;8.850;2022-09-21T13:18:04;2.03;;;0.57;;
24305;SDS011;12423;48.768;8.850;2022-09-21T13:20:17;2.65;;;0.90;;
24305;SDS011;12423;48.768;8.850;2022-09-21T13:22:23;3.20;;;0.90;;
24305;SDS011;12423;48.768;8.850;2022-09-21T13:24:27;1.92;;;1.00;;
24305;SDS011;12423;48.768;8.850;2022-09-21T13:28:41;4.03;;;1.40;;
24305;SDS011;12423;48.768;8.850;2022-09-21T13:38:19;3.70;;;1.90;;
24305;SDS011;12423;48.768;8.850;2022-09-21T13:44:36;3.88;;;2.67;;
24305;SDS011;12423;48.768;8.850;2022-09-21T13:48:42;2.70;;;1.00;;
24305;SDS011;12423;48.768;8.850;2022-09-21T13:50:43;7.40;;;1.30;;
24305;SDS011;12423;48.768;8.850;2022-09-21T13:52:45;5.55;;;1.35;;
24305;SDS011;12423;48.768;8.850;2022-09-21T13:54:53;1.33;;;0.60;;
24305;SDS011;12423;48.768;8.850;2022-09-21T13:57:14;2.60;;;0.70;;
24305;SDS011;12423;48.768;8.850;2022-09-21T14:01:32;2.83;;;1.00;;
24305;SDS011;12423;48.768;8.850;2022-09-21T14:03:36;9.18;;;4.47;;
24305;SDS011;12423;48.768;8.850;2022-09-21T14:05:46;8.82;;;4.35;;
24305;SDS011;12423;48.768;8.850;2022-09-21T14:07:54;4.22;;;1.90;;
24305;SDS011;12423;48.768;8.850;2022-09-21T14:09:59;6.93;;;3.20;;
24305;SDS011;12423;48.768;8.850;2022-09-21T14:12:04;3.60;;;1.40;;
24305;SDS011;12423;48.768;8.850;2022-09-21T14:14:23;4.40;;;1.48;;
24305;SDS011;12423;48.768;8.850;2022-09-21T14:18:36;4.03;;;1.55;;
24305;SDS011;12423;48.768;8.850;2022-09-21T14:20:37;7.35;;;2.90;;
24305;SDS011;12423;48.768;8.850;2022-09-21T14:22:39;4.15;;;1.15;;
24305;SDS011;12423;48.768;8.850;2022-09-21T14:24:41;2.00;;;0.80;;
24305;SDS011;12423;48.768;8.850;2022-09-21T14:26:45;1.70;;;0.60;;
24305;SDS011;12423;48.768;8.850;2022-09-21T14:28:52;2.63;;;1.27;;
24305;SDS011;12423;48.768;8.850;2022-09-21T14:30:54;2.30;;;0.80;;
24305;SDS011;12423;48.768;8.850;2022-09-21T14:35:05;1.83;;;0.77;;
24305;SDS011;12423;48.768;8.850;2022-09-21T14:37:33;1.10;;;0.50;;
24305;SDS011;12423;48.768;8.850;2022-09-21T14:39:39;1.08;;;0.60;;
24305;SDS011;12423;48.768;8.850;2022-09-21T14:41:44;2.00;;;0.50;;
24305;SDS011;12423;48.768;8.850;2022-09-21T14:43:50;1.95;;;0.60;;
24305;SDS011;12423;48.768;8.850;2022-09-21T14:48:10;1.50;;;0.80;;
24305;SDS011;12423;48.768;8.850;2022-09-21T14:50:33;0.98;;;0.45;;